sensor_id;sensor_type;location;lat;lon;timestamp;pressure;altitude;pressure_sealevel;temperature;humidity
8575;BME280;4325;42.520;27.448;2022-09-09T00:02:17;101333.13;;;19.67;98.54
8575;BME280;4325;42.520;27.448;2022-09-09T00:04:50;101332.63;;;19.65;98.72
8575;BME280;4325;42.520;27.448;2022-09-09T00:07:25;101328.69;;;19.66;98.60
8575;BME280;4325;42.520;27.448;2022-09-09T00:10:00;101327.25;;;19.69;98.77
8575;BME280;4325;42.520;27.448;2022-09-09T00:12:38;101325.00;;;19.71;98.63
8575;BME280;4325;42.520;27.448;2022-09-09T00:15:13;101325.28;;;19.69;98.88
8575;BME280;4325;42.520;27.448;2022-09-09T00:17:49;101319.88;;;19.64;98.78
8575;BME280;4325;42.520;27.448;2022-09-09T00:20:24;101322.16;;;19.62;98.78
8575;BME280;4325;42.520;27.448;2022-09-09T00:22:59;101319.72;;;19.61;98.76
8575;BME280;4325;42.520;27.448;2022-09-09T00:25:33;101319.34;;;19.54;99.08
8575;BME280;4325;42.520;27.448;2022-09-09T00:28:02;101319.75;;;19.47;99.19
8575;BME280;4325;42.520;27.448;2022-09-09T00:30:35;101321.88;;;19.42;99.77
8575;BME280;4325;42.520;27.448;2022-09-09T00:33:10;101328.97;;;19.34;99.93
8575;BME280;4325;42.520;27.448;2022-09-09T00:35:44;101326.63;;;19.28;100.00
8575;BME280;4325;42.520;27.448;2022-09-09T00:38:15;101319.91;;;19.20;100.00
8575;BME280;4325;42.520;27.448;2022-09-09T00:40:49;101322.66;;;19.20;100.00
8575;BME280;4325;42.520;27.448;2022-09-09T00:43:26;101317.28;;;19.24;100.00
8575;BME280;4325;42.520;27.448;2022-09-09T00:46:23;101325.44;;;19.20;100.00
8575;BME280;4325;42.520;27.448;2022-09-09T00:49:04;101321.63;;;19.16;100.00
8575;BME280;4325;42.520;27.448;2022-09-09T00:51:44;101315.59;;;19.14;100.00
8575;BME280;4325;42.520;27.448;2022-09-09T00:54:30;101318.56;;;19.18;100.00
8575;BME280;4325;42.520;27.448;2022-09-09T00:57:12;101316.78;;;19.22;100.00
8575;BME280;4325;42.520;27.448;2022-09-09T00:59:46;101318.88;;;19.16;100.00
8575;BME280;4325;42.520;27.448;2022-09-09T01:02:22;101315.59;;;19.14;100.00
8575;BME280;4325;42.520;27.448;2022-09-09T01:04:53;101327.81;;;19.13;100.00
8575;BME280;4325;42.520;27.448;2022-09-09T01:07:21;101326.69;;;19.14;100.00
8575;BME280;4325;42.520;27.448;2022-09-09T01:09:53;101327.31;;;19.11;100.00
8575;BME280;4325;42.520;27.448;2022-09-09T01:12:27;101321.38;;;19.04;100.00
8575;BME280;4325;42.520;27.448;2022-09-09T01:15:03;101326.53;;;18.97;100.00
8575;BME280;4325;42.520;27.448;2022-09-09T01:17:33;101333.16;;;18.87;100.00
8575;BME280;4325;42.520;27.448;2022-09-09T01:20:09;101333.28;;;18.82;100.00
8575;BME280;4325;42.520;27.448;2022-09-09T01:22:44;101331.56;;;18.73;100.00
8575;BME280;4325;42.520;27.448;2022-09-09T01:25:25;101325.28;;;18.67;100.00
8575;BME280;4325;42.520;27.448;2022-09-09T01:27:58;101325.78;;;18.69;100.00
8575;BME280;4325;42.520;27.448;2022-09-09T01:30:27;101324.59;;;18.62;100.00
8575;BME280;4325;42.520;27.448;2022-09-09T01:32:56;101327.47;;;18.57;100.00
8575;BME280;4325;42.520;27.448;2022-09-09T01:35:32;101316.28;;;18.48;100.00
8575;BME280;4325;42.520;27.448;2022-09-09T01:38:03;101326.63;;;18.42;100.00
8575;BME280;4325;42.520;27.448;2022-09-09T01:40:31;101323.34;;;18.40;100.00
8575;BME280;4325;42.520;27.448;2022-09-09T01:42:59;101325.94;;;18.37;100.00
8575;BME280;4325;42.520;27.448;2022-09-09T01:45:27;101315.56;;;18.29;100.00
8575;BME280;4325;42.520;27.448;2022-09-09T01:47:53;101318.34;;;18.15;100.00
8575;BME280;4325;42.520;27.448;2022-09-09T01:50:22;101324.69;;;18.16;100.00
8575;BME280;4325;42.520;27.448;2022-09-09T01:52:53;101326.94;;;18.14;100.00
8575;BME280;4325;42.520;27.448;2022-09-09T01:55:28;101328.69;;;18.10;100.00
8575;BME280;4325;42.520;27.448;2022-09-09T01:58:05;101334.03;;;18.06;100.00
8575;BME280;4325;42.520;27.448;2022-09-09T02:00:42;101328.28;;;18.03;100.00
8575;BME280;4325;42.520;27.448;2022-09-09T02:03:18;101327.25;;;17.99;100.00
8575;BME280;4325;42.520;27.448;2022-09-09T02:05:55;101314.94;;;17.91;100.00
8575;BME280;4325;42.520;27.448;2022-09-09T02:08:30;101329.41;;;17.88;100.00
8575;BME280;4325;42.520;27.448;2022-09-09T02:11:01;101327.25;;;17.85;100.00
8575;BME280;4325;42.520;27.448;2022-09-09T02:13:35;101327.25;;;17.85;100.00
8575;BME280;4325;42.520;27.448;2022-09-09T02:16:06;101331.75;;;17.81;100.00
8575;BME280;4325;42.520;27.448;2022-09-09T02:18:38;101327.94;;;17.77;100.00
8575;BME280;4325;42.520;27.448;2022-09-09T02:21:07;101318.38;;;17.69;100.00
8575;BME280;4325;42.520;27.448;2022-09-09T02:23:37;101322.06;;;17.65;100.00
8575;BME280;4325;42.520;27.448;2022-09-09T02:26:07;101321.66;;;17.58;100.00
8575;BME280;4325;42.520;27.448;2022-09-09T02:28:38;101319.84;;;17.48;100.00
8575;BME280;4325;42.520;27.448;2022-09-09T02:31:06;101326.28;;;17.44;100.00
8575;BME280;4325;42.520;27.448;2022-09-09T02:33:37;101315.38;;;17.34;100.00
8575;BME280;4325;42.520;27.448;2022-09-09T02:36:06;101318.25;;;17.29;100.00
8575;BME280;4325;42.520;27.448;2022-09-09T02:38:37;101314.97;;;17.27;100.00
8575;BME280;4325;42.520;27.448;2022-09-09T02:41:06;101323.78;;;17.29;100.00
8575;BME280;4325;42.520;27.448;2022-09-09T02:43:34;101313.84;;;17.28;100.00
8575;BME280;4325;42.520;27.448;2022-09-09T02:46:09;101321.09;;;17.24;100.00
8575;BME280;4325;42.520;27.448;2022-09-09T02:48:50;101319.06;;;17.29;100.00
8575;BME280;4325;42.520;27.448;2022-09-09T02:51:23;101321.00;;;17.29;100.00
8575;BME280;4325;42.520;27.448;2022-09-09T02:53:57;101316.00;;;17.31;100.00
8575;BME280;4325;42.520;27.448;2022-09-09T02:56:29;101321.25;;;17.32;100.00
8575;BME280;4325;42.520;27.448;2022-09-09T02:58:59;101314.38;;;17.30;100.00
8575;BME280;4325;42.520;27.448;2022-09-09T03:01:27;101325.94;;;17.32;100.00
8575;BME280;4325;42.520;27.448;2022-09-09T03:03:54;101322.34;;;17.31;100.00
8575;BME280;4325;42.520;27.448;2022-09-09T03:06:21;101317.13;;;17.30;100.00
8575;BME280;4325;42.520;27.448;2022-09-09T03:08:48;101316.81;;;17.31;100.00
8575;BME280;4325;42.520;27.448;2022-09-09T03:11:16;101318.84;;;17.26;100.00
8575;BME280;4325;42.520;27.448;2022-09-09T03:13:43;101319.47;;;17.23;100.00
8575;BME280;4325;42.520;27.448;2022-09-09T03:16:10;101325.09;;;17.17;100.00
8575;BME280;4325;42.520;27.448;2022-09-09T03:18:38;101330.09;;;17.15;100.00
8575;BME280;4325;42.520;27.448;2022-09-09T03:21:05;101329.03;;;17.11;100.00
8575;BME280;4325;42.520;27.448;2022-09-09T03:23:32;101320.81;;;17.06;100.00
8575;BME280;4325;42.520;27.448;2022-09-09T03:25:59;101334.66;;;17.06;100.00
8575;BME280;4325;42.520;27.448;2022-09-09T03:28:26;101327.50;;;17.05;100.00
8575;BME280;4325;42.520;27.448;2022-09-09T03:30:59;101336.91;;;17.04;100.00
8575;BME280;4325;42.520;27.448;2022-09-09T03:33:26;101340.25;;;17.01;100.00
8575;BME280;4325;42.520;27.448;2022-09-09T03:35:54;101338.19;;;16.93;100.00
8575;BME280;4325;42.520;27.448;2022-09-09T03:38:22;101342.44;;;16.86;100.00
8575;BME280;4325;42.520;27.448;2022-09-09T03:40:50;101342.19;;;16.82;100.00
8575;BME280;4325;42.520;27.448;2022-09-09T03:43:20;101331.72;;;16.79;100.00
8575;BME280;4325;42.520;27.448;2022-09-09T03:45:48;101341.16;;;16.78;100.00
8575;BME280;4325;42.520;27.448;2022-09-09T03:48:15;101344.00;;;16.73;100.00
8575;BME280;4325;42.520;27.448;2022-09-09T03:50:44;101338.47;;;16.73;100.00
8575;BME280;4325;42.520;27.448;2022-09-09T03:53:14;101333.31;;;16.67;100.00
8575;BME280;4325;42.520;27.448;2022-09-09T03:55:44;101341.06;;;16.65;100.00
8575;BME280;4325;42.520;27.448;2022-09-09T03:58:11;101340.84;;;16.61;100.00
8575;BME280;4325;42.520;27.448;2022-09-09T04:00:38;101335.38;;;16.56;100.00
8575;BME280;4325;42.520;27.448;2022-09-09T04:03:08;101333.22;;;16.53;100.00
8575;BME280;4325;42.520;27.448;2022-09-09T04:05:35;101335.38;;;16.56;100.00
8575;BME280;4325;42.520;27.448;2022-09-09T04:08:05;101336.97;;;16.62;100.00
8575;BME280;4325;42.520;27.448;2022-09-09T04:10:34;101332.25;;;16.63;100.00
8575;BME280;4325;42.520;27.448;2022-09-09T04:13:02;101340.47;;;16.68;100.00
8575;BME280;4325;42.520;27.448;2022-09-09T04:15:29;101339.31;;;16.74;100.00
8575;BME280;4325;42.520;27.448;2022-09-09T04:17:56;101335.06;;;16.81;100.00
8575;BME280;4325;42.520;27.448;2022-09-09T04:20:24;101323.00;;;16.91;100.00
8575;BME280;4325;42.520;27.448;2022-09-09T04:22:50;101343.56;;;17.03;100.00
8575;BME280;4325;42.520;27.448;2022-09-09T04:25:17;101340.69;;;17.08;100.00
8575;BME280;4325;42.520;27.448;2022-09-09T04:27:45;101346.16;;;17.13;100.00
8575;BME280;4325;42.520;27.448;2022-09-09T04:30:13;101348.78;;;17.24;100.00
8575;BME280;4325;42.520;27.448;2022-09-09T04:32:39;101353.56;;;17.37;100.00
8575;BME280;4325;42.520;27.448;2022-09-09T04:35:07;101344.84;;;17.43;100.00
8575;BME280;4325;42.520;27.448;2022-09-09T04:37:34;101353.97;;;17.44;100.00
8575;BME280;4325;42.520;27.448;2022-09-09T04:40:01;101352.88;;;17.45;100.00
8575;BME280;4325;42.520;27.448;2022-09-09T04:42:28;101343.94;;;17.48;100.00
8575;BME280;4325;42.520;27.448;2022-09-09T04:44:56;101345.03;;;17.52;100.00
8575;BME280;4325;42.520;27.448;2022-09-09T04:47:23;101347.72;;;17.57;100.00
8575;BME280;4325;42.520;27.448;2022-09-09T04:49:50;101347.91;;;17.60;100.00
8575;BME280;4325;42.520;27.448;2022-09-09T04:52:18;101348.34;;;17.67;100.00
8575;BME280;4325;42.520;27.448;2022-09-09T04:54:45;101347.50;;;17.67;100.00
8575;BME280;4325;42.520;27.448;2022-09-09T04:57:13;101355.81;;;17.67;100.00
8575;BME280;4325;42.520;27.448;2022-09-09T04:59:40;101356.34;;;17.69;100.00
8575;BME280;4325;42.520;27.448;2022-09-09T05:02:08;101357.19;;;17.83;100.00
8575;BME280;4325;42.520;27.448;2022-09-09T05:04:35;101354.63;;;17.87;100.00
8575;BME280;4325;42.520;27.448;2022-09-09T05:07:02;101350.84;;;17.96;100.00
8575;BME280;4325;42.520;27.448;2022-09-09T05:09:29;101353.31;;;18.11;99.98
8575;BME280;4325;42.520;27.448;2022-09-09T05:11:56;101353.13;;;18.21;99.40
8575;BME280;4325;42.520;27.448;2022-09-09T05:14:23;101352.19;;;18.26;99.70
8575;BME280;4325;42.520;27.448;2022-09-09T05:16:50;101353.44;;;18.33;99.21
8575;BME280;4325;42.520;27.448;2022-09-09T05:19:19;101349.72;;;18.38;98.11
8575;BME280;4325;42.520;27.448;2022-09-09T05:21:46;101343.78;;;18.44;97.60
8575;BME280;4325;42.520;27.448;2022-09-09T05:24:13;101338.97;;;18.50;97.43
8575;BME280;4325;42.520;27.448;2022-09-09T05:26:39;101347.91;;;18.61;95.64
8575;BME280;4325;42.520;27.448;2022-09-09T05:29:07;101346.16;;;18.65;95.55
8575;BME280;4325;42.520;27.448;2022-09-09T05:31:33;101337.09;;;18.73;93.96
8575;BME280;4325;42.520;27.448;2022-09-09T05:34:00;101335.03;;;18.78;94.11
8575;BME280;4325;42.520;27.448;2022-09-09T05:36:28;101330.06;;;18.89;93.75
8575;BME280;4325;42.520;27.448;2022-09-09T05:38:55;101343.09;;;19.02;92.81
8575;BME280;4325;42.520;27.448;2022-09-09T05:41:22;101333.56;;;19.17;91.46
8575;BME280;4325;42.520;27.448;2022-09-09T05:43:49;101334.44;;;19.26;91.04
8575;BME280;4325;42.520;27.448;2022-09-09T05:46:17;101340.09;;;19.34;90.52
8575;BME280;4325;42.520;27.448;2022-09-09T05:48:46;101350.78;;;19.41;90.32
8575;BME280;4325;42.520;27.448;2022-09-09T05:51:15;101358.97;;;19.46;89.97
8575;BME280;4325;42.520;27.448;2022-09-09T05:53:44;101352.00;;;19.57;89.94
8575;BME280;4325;42.520;27.448;2022-09-09T05:56:13;101351.59;;;19.63;90.70
8575;BME280;4325;42.520;27.448;2022-09-09T05:58:40;101344.38;;;19.62;91.35
8575;BME280;4325;42.520;27.448;2022-09-09T06:01:10;101341.09;;;19.60;92.18
8575;BME280;4325;42.520;27.448;2022-09-09T06:03:39;101347.66;;;19.64;92.70
8575;BME280;4325;42.520;27.448;2022-09-09T06:06:08;101342.94;;;19.65;92.78
8575;BME280;4325;42.520;27.448;2022-09-09T06:08:38;101350.53;;;19.82;92.08
8575;BME280;4325;42.520;27.448;2022-09-09T06:11:07;101348.78;;;19.86;91.35
8575;BME280;4325;42.520;27.448;2022-09-09T06:13:36;101354.69;;;19.93;90.83
8575;BME280;4325;42.520;27.448;2022-09-09T06:16:04;101350.00;;;20.02;90.88
8575;BME280;4325;42.520;27.448;2022-09-09T06:18:32;101354.78;;;20.10;90.70
8575;BME280;4325;42.520;27.448;2022-09-09T06:21:00;101354.31;;;20.16;90.79
8575;BME280;4325;42.520;27.448;2022-09-09T06:23:29;101357.16;;;20.25;90.65
8575;BME280;4325;42.520;27.448;2022-09-09T06:26:03;101358.16;;;20.29;90.29
8575;BME280;4325;42.520;27.448;2022-09-09T06:28:33;101358.31;;;20.32;90.69
8575;BME280;4325;42.520;27.448;2022-09-09T06:31:01;101357.22;;;20.42;89.96
8575;BME280;4325;42.520;27.448;2022-09-09T06:33:33;101358.06;;;20.51;89.07
8575;BME280;4325;42.520;27.448;2022-09-09T06:36:02;101371.16;;;20.59;89.22
8575;BME280;4325;42.520;27.448;2022-09-09T06:38:30;101377.25;;;20.61;88.66
8575;BME280;4325;42.520;27.448;2022-09-09T06:40:58;101380.03;;;20.61;89.33
8575;BME280;4325;42.520;27.448;2022-09-09T06:43:26;101375.66;;;20.77;88.19
8575;BME280;4325;42.520;27.448;2022-09-09T06:45:56;101371.56;;;20.83;88.60
8575;BME280;4325;42.520;27.448;2022-09-09T06:48:23;101377.47;;;20.99;88.26
8575;BME280;4325;42.520;27.448;2022-09-09T06:51:00;101371.97;;;21.16;87.21
8575;BME280;4325;42.520;27.448;2022-09-09T06:53:27;101376.03;;;21.27;85.48
8575;BME280;4325;42.520;27.448;2022-09-09T06:55:54;101376.53;;;21.38;82.14
8575;BME280;4325;42.520;27.448;2022-09-09T06:58:21;101377.34;;;21.47;83.31
8575;BME280;4325;42.520;27.448;2022-09-09T07:00:48;101378.00;;;21.61;81.32
8575;BME280;4325;42.520;27.448;2022-09-09T07:03:17;101388.31;;;21.69;79.04
8575;BME280;4325;42.520;27.448;2022-09-09T07:05:53;101390.09;;;21.82;78.73
8575;BME280;4325;42.520;27.448;2022-09-09T07:08:21;101395.84;;;21.94;77.91
8575;BME280;4325;42.520;27.448;2022-09-09T07:10:48;101387.78;;;22.01;76.91
8575;BME280;4325;42.520;27.448;2022-09-09T07:13:17;101388.25;;;22.12;76.06
8575;BME280;4325;42.520;27.448;2022-09-09T07:15:45;101389.66;;;22.26;74.63
8575;BME280;4325;42.520;27.448;2022-09-09T07:18:12;101392.28;;;22.31;74.46
8575;BME280;4325;42.520;27.448;2022-09-09T07:20:40;101392.19;;;22.49;72.58
8575;BME280;4325;42.520;27.448;2022-09-09T07:23:07;101396.22;;;22.68;72.82
8575;BME280;4325;42.520;27.448;2022-09-09T07:25:34;101388.16;;;22.96;71.86
8575;BME280;4325;42.520;27.448;2022-09-09T07:28:01;101384.03;;;23.43;69.32
8575;BME280;4325;42.520;27.448;2022-09-09T07:30:28;101385.72;;;23.89;66.02
8575;BME280;4325;42.520;27.448;2022-09-09T07:32:55;101382.91;;;24.34;64.73
8575;BME280;4325;42.520;27.448;2022-09-09T07:35:24;101389.34;;;24.95;61.22
8575;BME280;4325;42.520;27.448;2022-09-09T07:37:53;101376.81;;;25.56;57.35
8575;BME280;4325;42.520;27.448;2022-09-09T07:40:20;101377.88;;;26.23;53.89
8575;BME280;4325;42.520;27.448;2022-09-09T07:42:47;101384.31;;;27.24;50.64
8575;BME280;4325;42.520;27.448;2022-09-09T07:45:14;101377.94;;;28.04;46.13
8575;BME280;4325;42.520;27.448;2022-09-09T07:47:41;101376.78;;;28.76;44.63
8575;BME280;4325;42.520;27.448;2022-09-09T07:50:08;101381.47;;;29.51;40.83
8575;BME280;4325;42.520;27.448;2022-09-09T07:52:38;101380.03;;;29.64;40.62
8575;BME280;4325;42.520;27.448;2022-09-09T07:55:07;101379.91;;;29.87;39.09
8575;BME280;4325;42.520;27.448;2022-09-09T07:57:34;101374.63;;;30.26;38.67
8575;BME280;4325;42.520;27.448;2022-09-09T08:00:02;101380.47;;;31.77;35.61
8575;BME280;4325;42.520;27.448;2022-09-09T08:02:29;101375.75;;;32.41;33.28
8575;BME280;4325;42.520;27.448;2022-09-09T08:04:56;101386.28;;;32.58;30.63
8575;BME280;4325;42.520;27.448;2022-09-09T08:07:23;101367.63;;;32.75;30.97
8575;BME280;4325;42.520;27.448;2022-09-09T08:09:50;101373.72;;;32.59;30.48
8575;BME280;4325;42.520;27.448;2022-09-09T08:12:18;101364.44;;;32.51;28.44
8575;BME280;4325;42.520;27.448;2022-09-09T08:14:45;101371.63;;;31.92;28.60
8575;BME280;4325;42.520;27.448;2022-09-09T08:17:12;101364.44;;;32.51;29.20
8575;BME280;4325;42.520;27.448;2022-09-09T08:19:39;101351.84;;;33.81;26.68
8575;BME280;4325;42.520;27.448;2022-09-09T08:22:06;101353.66;;;34.68;24.98
8575;BME280;4325;42.520;27.448;2022-09-09T08:24:33;101333.63;;;34.78;25.21
8575;BME280;4325;42.520;27.448;2022-09-09T08:27:00;101345.13;;;36.26;24.98
8575;BME280;4325;42.520;27.448;2022-09-09T08:29:28;101352.72;;;37.02;22.78
8575;BME280;4325;42.520;27.448;2022-09-09T08:31:56;101337.31;;;35.76;25.97
8575;BME280;4325;42.520;27.448;2022-09-09T08:34:24;101333.81;;;35.92;25.81
8575;BME280;4325;42.520;27.448;2022-09-09T08:36:53;101335.06;;;36.18;26.12
8575;BME280;4325;42.520;27.448;2022-09-09T08:39:21;101327.25;;;36.45;26.50
8575;BME280;4325;42.520;27.448;2022-09-09T08:45:02;101335.31;;;37.91;25.98
8575;BME280;4325;42.520;27.448;2022-09-09T08:47:39;101327.03;;;39.98;25.51
8575;BME280;4325;42.520;27.448;2022-09-09T08:50:22;101331.63;;;41.67;24.03
8575;BME280;4325;42.520;27.448;2022-09-09T08:52:56;101319.47;;;43.15;22.62
8575;BME280;4325;42.520;27.448;2022-09-09T08:55:33;101326.25;;;44.61;20.91
8575;BME280;4325;42.520;27.448;2022-09-09T08:58:09;101319.84;;;45.63;20.27
8575;BME280;4325;42.520;27.448;2022-09-09T09:00:45;101319.84;;;46.32;19.44
8575;BME280;4325;42.520;27.448;2022-09-09T09:03:23;101325.16;;;46.94;18.57
8575;BME280;4325;42.520;27.448;2022-09-09T09:06:06;101321.00;;;47.52;18.07
8575;BME280;4325;42.520;27.448;2022-09-09T09:08:43;101307.59;;;47.29;17.46
8575;BME280;4325;42.520;27.448;2022-09-09T09:11:13;101314.91;;;47.25;17.58
8575;BME280;4325;42.520;27.448;2022-09-09T09:13:44;101315.44;;;47.23;18.25
8575;BME280;4325;42.520;27.448;2022-09-09T09:16:19;101310.03;;;47.36;18.40
8575;BME280;4325;42.520;27.448;2022-09-09T09:18:48;101312.06;;;47.30;18.79
8575;BME280;4325;42.520;27.448;2022-09-09T09:21:21;101303.31;;;46.99;19.27
8575;BME280;4325;42.520;27.448;2022-09-09T09:23:56;101308.50;;;46.49;19.77
8575;BME280;4325;42.520;27.448;2022-09-09T09:26:25;101309.53;;;46.11;20.08
8575;BME280;4325;42.520;27.448;2022-09-09T09:28:56;101315.53;;;46.63;20.12
8575;BME280;4325;42.520;27.448;2022-09-09T09:31:25;101306.50;;;47.52;19.14
8575;BME280;4325;42.520;27.448;2022-09-09T09:33:53;101305.94;;;48.22;18.99
8575;BME280;4325;42.520;27.448;2022-09-09T09:36:24;101307.91;;;49.12;18.01
8575;BME280;4325;42.520;27.448;2022-09-09T09:38:52;101315.16;;;48.15;18.56
8575;BME280;4325;42.520;27.448;2022-09-09T09:41:34;101312.78;;;47.45;19.43
8575;BME280;4325;42.520;27.448;2022-09-09T09:44:03;101302.69;;;47.15;19.60
8575;BME280;4325;42.520;27.448;2022-09-09T09:46:32;101284.91;;;47.02;19.89
8575;BME280;4325;42.520;27.448;2022-09-09T09:49:00;101296.63;;;47.13;20.11
8575;BME280;4325;42.520;27.448;2022-09-09T09:51:29;101290.47;;;47.31;19.94
8575;BME280;4325;42.520;27.448;2022-09-09T09:54:08;101269.91;;;47.35;20.01
8575;BME280;4325;42.520;27.448;2022-09-09T09:56:36;101270.66;;;47.55;19.72
8575;BME280;4325;42.520;27.448;2022-09-09T09:59:03;101278.13;;;47.10;20.40
8575;BME280;4325;42.520;27.448;2022-09-09T10:01:32;101267.84;;;46.23;21.12
8575;BME280;4325;42.520;27.448;2022-09-09T10:04:01;101267.41;;;46.10;21.51
8575;BME280;4325;42.520;27.448;2022-09-09T10:06:33;101272.34;;;46.44;21.46
8575;BME280;4325;42.520;27.448;2022-09-09T10:09:01;101273.00;;;46.54;21.64
8575;BME280;4325;42.520;27.448;2022-09-09T10:11:42;101265.75;;;47.41;21.01
8575;BME280;4325;42.520;27.448;2022-09-09T10:14:18;101261.19;;;48.56;20.15
8575;BME280;4325;42.520;27.448;2022-09-09T10:17:07;101257.09;;;49.79;19.28
8575;BME280;4325;42.520;27.448;2022-09-09T10:19:37;101261.47;;;50.36;18.41
8575;BME280;4325;42.520;27.448;2022-09-09T10:22:19;101255.75;;;49.97;18.58
8575;BME280;4325;42.520;27.448;2022-09-09T10:25:16;101254.22;;;49.57;18.82
8575;BME280;4325;42.520;27.448;2022-09-09T10:27:59;101243.59;;;48.93;19.53
8575;BME280;4325;42.520;27.448;2022-09-09T10:30:44;101233.97;;;47.95;20.29
8575;BME280;4325;42.520;27.448;2022-09-09T10:33:21;101248.34;;;48.15;20.54
8575;BME280;4325;42.520;27.448;2022-09-09T10:35:58;101244.88;;;48.11;20.37
8575;BME280;4325;42.520;27.448;2022-09-09T10:38:39;101240.13;;;48.13;20.15
8575;BME280;4325;42.520;27.448;2022-09-09T10:41:16;101242.97;;;48.61;20.21
8575;BME280;4325;42.520;27.448;2022-09-09T10:44:10;101246.28;;;49.30;19.22
8575;BME280;4325;42.520;27.448;2022-09-09T10:46:49;101264.03;;;49.54;18.69
8575;BME280;4325;42.520;27.448;2022-09-09T10:49:29;101254.22;;;49.40;18.96
8575;BME280;4325;42.520;27.448;2022-09-09T10:52:06;101253.97;;;49.55;18.87
8575;BME280;4325;42.520;27.448;2022-09-09T10:54:46;101257.13;;;49.35;19.37
8575;BME280;4325;42.520;27.448;2022-09-09T10:57:26;101253.69;;;49.47;19.12
8575;BME280;4325;42.520;27.448;2022-09-09T10:59:58;101235.41;;;48.91;19.27
8575;BME280;4325;42.520;27.448;2022-09-09T11:02:30;101240.59;;;48.54;20.25
8575;BME280;4325;42.520;27.448;2022-09-09T11:05:02;101241.69;;;48.62;20.26
8575;BME280;4325;42.520;27.448;2022-09-09T11:07:35;101251.19;;;48.57;20.09
8575;BME280;4325;42.520;27.448;2022-09-09T11:10:16;101231.63;;;48.63;19.52
8575;BME280;4325;42.520;27.448;2022-09-09T11:12:46;101225.16;;;48.26;19.97
8575;BME280;4325;42.520;27.448;2022-09-09T11:15:19;101221.72;;;48.27;20.02
8575;BME280;4325;42.520;27.448;2022-09-09T11:17:50;101217.00;;;47.45;20.60
8575;BME280;4325;42.520;27.448;2022-09-09T11:20:21;101205.28;;;47.03;21.28
8575;BME280;4325;42.520;27.448;2022-09-09T11:22:53;101207.97;;;46.81;21.20
8575;BME280;4325;42.520;27.448;2022-09-09T11:25:25;101204.53;;;47.39;21.12
8575;BME280;4325;42.520;27.448;2022-09-09T11:31:02;101194.34;;;47.49;20.67
8575;BME280;4325;42.520;27.448;2022-09-09T11:33:58;101188.19;;;46.54;21.43
8575;BME280;4325;42.520;27.448;2022-09-09T11:36:53;101179.28;;;46.83;21.26
8575;BME280;4325;42.520;27.448;2022-09-09T11:39:38;101187.75;;;47.18;20.83
8575;BME280;4325;42.520;27.448;2022-09-09T11:42:16;101181.63;;;46.59;21.27
8575;BME280;4325;42.520;27.448;2022-09-09T11:44:44;101171.63;;;46.60;21.43
8575;BME280;4325;42.520;27.448;2022-09-09T11:47:23;101171.03;;;46.76;21.24
8575;BME280;4325;42.520;27.448;2022-09-09T11:49:54;101163.38;;;46.73;21.08
8575;BME280;4325;42.520;27.448;2022-09-09T11:52:25;101166.00;;;46.71;21.02
8575;BME280;4325;42.520;27.448;2022-09-09T11:54:55;101155.03;;;46.86;21.23
8575;BME280;4325;42.520;27.448;2022-09-09T11:57:27;101159.47;;;47.07;21.02
8575;BME280;4325;42.520;27.448;2022-09-09T11:59:57;101152.44;;;46.36;21.60
8575;BME280;4325;42.520;27.448;2022-09-09T12:02:27;101162.78;;;46.43;21.58
8575;BME280;4325;42.520;27.448;2022-09-09T12:04:59;101154.50;;;46.82;21.06
8575;BME280;4325;42.520;27.448;2022-09-09T12:07:35;101150.09;;;46.66;21.20
8575;BME280;4325;42.520;27.448;2022-09-09T12:10:20;101149.44;;;46.77;21.21
8575;BME280;4325;42.520;27.448;2022-09-09T12:12:48;101144.78;;;47.16;20.90
8575;BME280;4325;42.520;27.448;2022-09-09T12:15:27;101132.44;;;46.90;20.87
8575;BME280;4325;42.520;27.448;2022-09-09T12:17:56;101139.13;;;46.24;21.74
8575;BME280;4325;42.520;27.448;2022-09-09T12:20:30;101139.75;;;44.60;23.05
8575;BME280;4325;42.520;27.448;2022-09-09T12:23:19;101135.28;;;44.21;23.46
8575;BME280;4325;42.520;27.448;2022-09-09T12:25:58;101128.78;;;44.64;23.58
8575;BME280;4325;42.520;27.448;2022-09-09T12:28:39;101128.97;;;45.04;23.54
8575;BME280;4325;42.520;27.448;2022-09-09T12:31:12;101119.75;;;45.20;23.13
8575;BME280;4325;42.520;27.448;2022-09-09T12:33:44;101106.63;;;45.19;22.91
8575;BME280;4325;42.520;27.448;2022-09-09T12:36:15;101108.50;;;45.57;23.00
8575;BME280;4325;42.520;27.448;2022-09-09T12:38:46;101108.53;;;45.43;22.77
8575;BME280;4325;42.520;27.448;2022-09-09T12:41:19;101104.19;;;45.33;23.07
8575;BME280;4325;42.520;27.448;2022-09-09T12:43:47;101110.06;;;44.07;24.13
8575;BME280;4325;42.520;27.448;2022-09-09T12:46:24;101105.94;;;44.08;24.36
8575;BME280;4325;42.520;27.448;2022-09-09T12:48:55;101103.66;;;44.26;24.02
8575;BME280;4325;42.520;27.448;2022-09-09T12:51:25;101104.25;;;44.30;24.09
8575;BME280;4325;42.520;27.448;2022-09-09T12:53:55;101101.31;;;44.54;23.82
8575;BME280;4325;42.520;27.448;2022-09-09T12:56:24;101098.09;;;44.52;23.42
8575;BME280;4325;42.520;27.448;2022-09-09T12:59:22;101100.25;;;44.28;23.94
8575;BME280;4325;42.520;27.448;2022-09-09T13:01:56;101085.88;;;44.04;24.02
8575;BME280;4325;42.520;27.448;2022-09-09T13:04:23;101081.84;;;43.87;24.08
8575;BME280;4325;42.520;27.448;2022-09-09T13:06:50;101096.44;;;44.07;23.75
8575;BME280;4325;42.520;27.448;2022-09-09T13:09:19;101094.47;;;44.13;23.75
8575;BME280;4325;42.520;27.448;2022-09-09T13:11:50;101089.72;;;44.25;23.55
8575;BME280;4325;42.520;27.448;2022-09-09T13:14:28;101089.56;;;44.05;23.70
8575;BME280;4325;42.520;27.448;2022-09-09T13:16:56;101084.31;;;43.56;24.04
8575;BME280;4325;42.520;27.448;2022-09-09T13:19:24;101080.31;;;43.53;24.61
8575;BME280;4325;42.520;27.448;2022-09-09T13:21:54;101080.56;;;43.64;24.49
8575;BME280;4325;42.520;27.448;2022-09-09T13:24:29;101083.66;;;43.28;24.22
8575;BME280;4325;42.520;27.448;2022-09-09T13:26:57;101077.88;;;43.37;24.53